createdAt,value
2023-05-19T00:02:04.875Z,94.67
2023-05-19T00:04:32.892Z,94.80
2023-05-19T00:07:00.566Z,94.73
2023-05-19T00:09:27.400Z,94.62
2023-05-19T00:11:56.036Z,94.77
2023-05-19T00:14:22.801Z,94.88
2023-05-19T00:16:49.795Z,94.86
2023-05-19T00:19:17.190Z,95.01
2023-05-19T00:21:43.882Z,95.01
2023-05-19T00:24:10.583Z,94.78
2023-05-19T00:26:37.558Z,94.86
2023-05-19T00:29:05.490Z,94.89
2023-05-19T00:31:33.354Z,94.96
2023-05-19T00:34:00.904Z,94.89
2023-05-19T00:36:27.566Z,94.92
2023-05-19T00:38:55.907Z,94.99
2023-05-19T00:41:22.505Z,94.99
2023-05-19T00:43:50.459Z,95.15
2023-05-19T00:46:18.597Z,94.90
2023-05-19T00:48:45.412Z,94.94
2023-05-19T00:51:15.970Z,95.00
2023-05-19T00:53:47.718Z,95.18
2023-05-19T00:56:15.948Z,95.26
2023-05-19T00:58:43.313Z,95.10
2023-05-19T01:01:11.675Z,95.17
2023-05-19T01:03:40.158Z,95.21
2023-05-19T01:06:07.516Z,95.13
2023-05-19T01:08:36.478Z,95.23
2023-05-19T01:11:08.314Z,95.14
2023-05-19T01:13:39.719Z,94.96
2023-05-19T01:16:23.525Z,95.06
2023-05-19T01:19:13.522Z,95.16
2023-05-19T01:22:06.247Z,95.14
2023-05-19T01:24:46.264Z,95.11
2023-05-19T01:27:40.950Z,95.09
2023-05-19T01:30:24.742Z,95.04
2023-05-19T01:32:56.497Z,95.30
2023-05-19T01:35:25.480Z,95.33
2023-05-19T01:37:56.058Z,95.12
2023-05-19T01:40:24.306Z,95.19
2023-05-19T01:42:57.323Z,95.23
2023-05-19T01:45:28.030Z,95.35
2023-05-19T01:47:56.584Z,95.19
2023-05-19T01:50:23.403Z,95.30
2023-05-19T01:52:50.554Z,95.24
2023-05-19T01:55:17.460Z,95.33
2023-05-19T01:58:04.576Z,95.33
2023-05-19T02:00:39.877Z,95.27
2023-05-19T02:03:44.058Z,95.38
2023-05-19T02:06:22.554Z,95.32
2023-05-19T02:09:12.911Z,95.39
2023-05-19T02:11:43.852Z,95.47
2023-05-19T02:14:19.788Z,95.45
2023-05-19T02:16:47.880Z,95.64
2023-05-19T02:19:23.438Z,95.67
2023-05-19T02:21:50.188Z,95.58
2023-05-19T02:24:17.231Z,95.55
2023-05-19T02:26:43.814Z,95.52
2023-05-19T02:29:10.496Z,95.42
2023-05-19T02:31:37.373Z,95.49
2023-05-19T02:34:03.951Z,95.66
2023-05-19T02:36:34.663Z,95.59
2023-05-19T02:39:02.018Z,95.68
2023-05-19T02:41:29.841Z,95.56
2023-05-19T02:43:57.306Z,95.54
2023-05-19T02:46:24.006Z,95.72
2023-05-19T02:48:51.637Z,95.75
2023-05-19T02:51:18.275Z,95.56
2023-05-19T02:53:44.858Z,95.82
2023-05-19T02:56:11.548Z,96.03
2023-05-19T02:58:38.909Z,96.06
2023-05-19T03:01:05.479Z,96.00
2023-05-19T03:03:32.374Z,96.15
2023-05-19T03:05:59.007Z,96.03
2023-05-19T03:08:25.704Z,96.09
2023-05-19T03:10:52.294Z,96.25
2023-05-19T03:13:18.940Z,96.21
2023-05-19T03:15:45.612Z,96.45
2023-05-19T03:18:12.796Z,96.41
2023-05-19T03:20:41.874Z,96.34
2023-05-19T03:23:08.596Z,96.63
2023-05-19T03:25:35.748Z,96.44
2023-05-19T03:28:02.753Z,96.37
2023-05-19T03:30:29.339Z,96.56
2023-05-19T03:33:09.749Z,96.61
2023-05-19T03:35:36.427Z,96.74
2023-05-19T03:38:03.047Z,96.64
2023-05-19T03:40:30.301Z,96.68
2023-05-19T03:43:02.425Z,96.71
2023-05-19T03:45:29.452Z,96.81
2023-05-19T03:47:56.249Z,96.85
2023-05-19T03:50:43.891Z,96.90
2023-05-19T03:53:16.081Z,96.97
2023-05-19T03:55:43.929Z,96.74
2023-05-19T03:58:13.909Z,96.81
2023-05-19T04:00:40.898Z,96.94
2023-05-19T04:03:07.750Z,96.97
2023-05-19T04:05:34.555Z,96.84
2023-05-19T04:08:01.104Z,96.86
2023-05-19T04:10:27.729Z,97.15
2023-05-19T04:12:54.675Z,97.26
2023-05-19T04:15:21.313Z,97.07
2023-05-19T04:17:47.948Z,97.07
2023-05-19T04:20:15.056Z,97.10
2023-05-19T04:22:41.623Z,97.12
2023-05-19T04:25:08.857Z,97.35
2023-05-19T04:27:38.144Z,97.18
2023-05-19T04:30:06.019Z,97.36
2023-05-19T04:32:32.849Z,97.23
2023-05-19T04:35:00.061Z,97.43
2023-05-19T04:37:29.294Z,97.47
2023-05-19T04:39:56.596Z,97.49
2023-05-19T04:42:25.510Z,97.47
2023-05-19T04:44:52.425Z,97.31
2023-05-19T04:47:20.902Z,97.32
2023-05-19T04:49:48.077Z,97.50
2023-05-19T04:52:15.276Z,97.62
2023-05-19T04:54:41.906Z,97.63
2023-05-19T04:57:12.452Z,97.75
2023-05-19T04:59:39.424Z,97.97
2023-05-19T05:02:07.553Z,97.78
2023-05-19T05:04:35.444Z,97.82
2023-05-19T05:07:02.103Z,97.91
2023-05-19T05:09:29.360Z,98.20
2023-05-19T05:11:57.596Z,98.04
2023-05-19T05:14:24.741Z,97.97
2023-05-19T05:16:52.290Z,98.11
2023-05-19T05:19:22.809Z,98.16
2023-05-19T05:21:49.720Z,98.15
2023-05-19T05:24:16.824Z,98.34
2023-05-19T05:26:48.006Z,98.34
2023-05-19T05:29:15.926Z,98.29
2023-05-19T05:31:42.511Z,98.39
2023-05-19T05:34:09.995Z,98.26
2023-05-19T05:36:36.948Z,98.31
2023-05-19T05:39:05.105Z,98.31
2023-05-19T05:41:34.678Z,98.35
2023-05-19T05:44:03.923Z,98.27
2023-05-19T05:46:32.090Z,98.50
2023-05-19T05:48:59.498Z,98.41
2023-05-19T05:51:26.591Z,98.62
2023-05-19T05:53:54.535Z,98.71
2023-05-19T05:56:22.575Z,98.52
2023-05-19T05:58:51.422Z,98.60
2023-05-19T06:01:18.036Z,98.66
2023-05-19T06:03:44.795Z,98.55
2023-05-19T06:06:13.766Z,98.55
2023-05-19T06:08:40.675Z,98.52
2023-05-19T06:11:08.542Z,98.74
2023-05-19T06:13:35.888Z,98.73
2023-05-19T06:16:05.158Z,98.72
2023-05-19T06:18:44.248Z,98.80
2023-05-19T06:21:12.755Z,98.84
2023-05-19T06:23:40.585Z,98.84
2023-05-19T06:26:08.728Z,98.68
2023-05-19T06:28:35.563Z,98.76
2023-05-19T06:31:02.814Z,98.74
2023-05-19T06:33:48.329Z,98.59
2023-05-19T06:36:15.731Z,98.38
2023-05-19T06:38:43.505Z,98.40
2023-05-19T06:41:10.274Z,98.53
2023-05-19T06:43:37.249Z,98.44
2023-05-19T06:46:04.132Z,98.53
2023-05-19T06:48:32.977Z,98.56
2023-05-19T06:50:59.669Z,98.38
2023-05-19T06:53:26.790Z,98.32
2023-05-19T06:55:59.521Z,98.40
2023-05-19T06:58:27.661Z,98.27
2023-05-19T07:00:55.213Z,98.31
2023-05-19T07:03:23.732Z,98.37
2023-05-19T07:05:50.559Z,98.33
2023-05-19T07:08:17.620Z,98.37
2023-05-19T07:10:44.166Z,98.47
2023-05-19T07:13:12.306Z,98.07
2023-05-19T07:15:39.042Z,97.91
2023-05-19T07:18:05.957Z,98.25
2023-05-19T07:20:32.923Z,98.29
2023-05-19T07:23:01.934Z,98.03
2023-05-19T07:25:29.886Z,97.96
2023-05-19T07:27:57.012Z,98.06
2023-05-19T07:30:23.743Z,97.71
2023-05-19T07:32:50.324Z,97.85
2023-05-19T07:35:16.937Z,97.87
2023-05-19T07:37:43.493Z,97.74
2023-05-19T07:40:10.343Z,97.94
2023-05-19T07:42:36.943Z,97.53
2023-05-19T07:45:03.882Z,97.63
2023-05-19T07:47:30.709Z,97.55
2023-05-19T07:49:57.279Z,97.31
2023-05-19T07:52:23.831Z,97.02
2023-05-19T07:54:50.359Z,97.23
2023-05-19T07:57:18.329Z,96.81
2023-05-19T07:59:44.960Z,96.98
2023-05-19T08:02:11.635Z,96.47
2023-05-19T08:04:38.636Z,96.43
2023-05-19T08:07:05.229Z,96.27
2023-05-19T08:09:31.806Z,96.32
2023-05-19T08:11:58.402Z,96.47
2023-05-19T08:14:26.356Z,96.43
2023-05-19T08:16:52.895Z,96.49
2023-05-19T08:19:19.549Z,95.62
2023-05-19T08:21:47.683Z,95.87
2023-05-19T08:24:14.661Z,95.53
2023-05-19T08:26:41.389Z,95.28
2023-05-19T08:29:07.897Z,95.31
2023-05-19T08:31:34.617Z,95.44
2023-05-19T08:34:01.404Z,95.82
2023-05-19T08:36:28.827Z,95.64
2023-05-19T08:38:55.611Z,95.57
2023-05-19T08:41:22.761Z,95.83
2023-05-19T08:43:49.565Z,95.80
2023-05-19T08:46:16.318Z,95.54
2023-05-19T08:48:44.440Z,95.68
2023-05-19T08:51:40.812Z,95.31
2023-05-19T08:54:17.649Z,94.97
2023-05-19T08:56:47.249Z,94.77
2023-05-19T08:59:17.278Z,95.13
2023-05-19T09:01:48.036Z,95.08
2023-05-19T09:04:16.384Z,95.12
2023-05-19T09:06:44.433Z,94.85
2023-05-19T09:09:11.255Z,94.95
2023-05-19T09:11:37.970Z,94.86
2023-05-19T09:17:34.503Z,94.88
2023-05-19T09:20:05.396Z,95.02
2023-05-19T09:22:35.905Z,95.05
2023-05-19T09:25:03.970Z,95.18
2023-05-19T09:27:33.826Z,95.19
2023-05-19T09:30:09.309Z,94.90
2023-05-19T09:32:37.342Z,95.15
2023-05-19T09:35:05.870Z,95.26
2023-05-19T09:37:33.856Z,95.15
2023-05-19T09:40:01.961Z,94.70
2023-05-19T09:42:30.588Z,95.15
2023-05-19T09:45:05.381Z,95.06
2023-05-19T09:47:42.466Z,95.12
2023-05-19T09:50:12.328Z,94.72
2023-05-19T09:52:43.660Z,94.62
2023-05-19T09:55:13.359Z,94.46
2023-05-19T09:57:41.647Z,94.59
2023-05-19T10:00:19.784Z,94.40
2023-05-19T10:02:48.706Z,94.26
2023-05-19T10:05:20.507Z,94.08
2023-05-19T10:07:54.696Z,94.52
2023-05-19T10:10:22.953Z,94.46
2023-05-19T10:12:51.099Z,94.42
2023-05-19T10:15:30.269Z,94.10
2023-05-19T10:17:59.455Z,93.98
2023-05-19T10:20:28.456Z,94.35
2023-05-19T10:22:56.471Z,94.58
2023-05-19T10:25:24.642Z,94.28
2023-05-19T10:28:10.394Z,94.39
2023-05-19T10:30:45.122Z,93.85
2023-05-19T10:33:17.467Z,93.58
2023-05-19T10:35:51.904Z,93.33
2023-05-19T10:38:56.781Z,93.69
2023-05-19T10:41:38.197Z,93.27
2023-05-19T10:44:30.837Z,93.36
2023-05-19T10:46:58.857Z,93.19
2023-05-19T10:49:26.872Z,93.21
2023-05-19T10:51:56.868Z,92.94
2023-05-19T10:54:46.718Z,92.60
2023-05-19T10:57:17.077Z,92.96
2023-05-19T10:59:45.314Z,93.35
2023-05-19T11:02:39.866Z,92.89
2023-05-19T11:05:14.617Z,93.40
2023-05-19T11:08:07.884Z,93.21
2023-05-19T11:10:36.049Z,93.06
2023-05-19T11:13:06.915Z,92.87
2023-05-19T11:15:38.869Z,92.71
2023-05-19T11:18:07.554Z,92.75
2023-05-19T11:20:39.170Z,93.10
2023-05-19T11:23:26.001Z,92.78
2023-05-19T11:25:54.470Z,92.43
2023-05-19T11:28:28.216Z,92.30
2023-05-19T11:30:59.173Z,92.13
2023-05-19T11:33:27.714Z,92.09
2023-05-19T11:35:58.699Z,92.00
2023-05-19T11:38:28.675Z,92.05
2023-05-19T11:40:57.205Z,92.18
2023-05-19T11:43:26.174Z,92.28
2023-05-19T11:45:55.143Z,92.29
2023-05-19T11:48:24.738Z,91.39
2023-05-19T11:50:53.179Z,91.10
2023-05-19T11:53:21.420Z,91.11
2023-05-19T11:55:49.842Z,91.08
2023-05-19T11:58:18.219Z,90.79
2023-05-19T12:00:47.710Z,90.85
2023-05-19T12:03:21.067Z,91.30
2023-05-19T12:05:50.009Z,91.18
2023-05-19T12:08:18.913Z,91.48
2023-05-19T12:10:53.130Z,91.41
2023-05-19T12:13:22.824Z,91.07
2023-05-19T12:15:52.401Z,90.62
2023-05-19T12:18:21.126Z,90.91
2023-05-19T12:20:49.425Z,90.86
2023-05-19T12:23:17.809Z,90.63
2023-05-19T12:25:46.179Z,90.61
2023-05-19T12:28:16.414Z,90.64
2023-05-19T12:30:48.066Z,90.73
2023-05-19T12:33:16.649Z,90.86
2023-05-19T12:35:44.720Z,90.86
2023-05-19T12:38:14.812Z,90.85
2023-05-19T12:40:44.008Z,90.38
2023-05-19T12:43:22.154Z,90.25
2023-05-19T12:45:50.380Z,90.31
2023-05-19T12:48:22.653Z,90.32
2023-05-19T12:50:56.649Z,90.19
2023-05-19T12:53:27.526Z,90.28
2023-05-19T12:55:55.985Z,90.41
2023-05-19T12:58:24.244Z,90.39
2023-05-19T13:00:58.773Z,90.29
2023-05-19T13:03:26.958Z,90.36
2023-05-19T13:05:55.444Z,90.59
2023-05-19T13:08:24.724Z,90.04
2023-05-19T13:10:52.847Z,89.71
2023-05-19T13:13:22.082Z,89.60
2023-05-19T13:15:50.694Z,89.74
2023-05-19T13:18:19.063Z,89.78
2023-05-19T13:20:50.251Z,89.74
2023-05-19T13:23:18.786Z,89.87
2023-05-19T13:25:47.790Z,89.39
2023-05-19T13:28:15.785Z,89.56
2023-05-19T13:30:44.515Z,89.62
2023-05-19T13:33:12.748Z,89.78
2023-05-19T13:35:40.809Z,89.87
2023-05-19T13:38:10.168Z,89.43
2023-05-19T13:40:40.008Z,89.22
2023-05-19T13:43:08.729Z,89.36
2023-05-19T13:45:37.293Z,89.31
2023-05-19T13:48:07.378Z,89.41
2023-05-19T13:50:35.702Z,89.36
2023-05-19T13:53:04.028Z,89.55
2023-05-19T13:55:32.720Z,89.70
2023-05-19T13:58:00.770Z,89.48
2023-05-19T14:00:28.981Z,89.82
2023-05-19T14:02:57.004Z,89.82
2023-05-19T14:05:25.248Z,89.85
2023-05-19T14:07:53.321Z,90.00
2023-05-19T14:10:21.512Z,89.94
2023-05-19T14:13:18.260Z,89.91
2023-05-19T14:15:38.501Z,89.96
2023-05-19T14:18:07.307Z,89.87
2023-05-19T14:29:49.731Z,89.94
2023-05-19T14:32:18.183Z,90.08
2023-05-19T14:34:46.354Z,90.03
2023-05-19T14:37:14.317Z,89.91
2023-05-19T14:39:42.357Z,90.12
2023-05-19T14:42:10.843Z,90.04
2023-05-19T14:44:38.925Z,90.25
2023-05-19T14:47:07.495Z,90.11
2023-05-19T14:49:35.747Z,90.22
2023-05-19T14:52:03.983Z,90.23
2023-05-19T14:54:31.968Z,90.35
2023-05-19T14:57:01.515Z,90.48
2023-05-19T14:59:30.706Z,90.29
2023-05-19T15:01:58.679Z,90.55
2023-05-19T15:04:26.717Z,90.48
2023-05-19T15:07:05.901Z,90.33
2023-05-19T15:09:37.895Z,90.21
2023-05-19T15:12:06.141Z,90.36
2023-05-19T15:14:34.202Z,90.33
2023-05-19T15:17:02.182Z,90.43
2023-05-19T15:19:33.485Z,90.41
2023-05-19T15:22:01.716Z,90.51
2023-05-19T15:24:32.897Z,90.61
2023-05-19T15:27:02.023Z,90.58
2023-05-19T15:29:36.343Z,90.69
2023-05-19T15:32:04.479Z,90.92
2023-05-19T15:34:32.492Z,90.73
2023-05-19T15:37:01.705Z,91.03
2023-05-19T15:39:33.734Z,91.03
2023-05-19T15:42:01.866Z,91.11
2023-05-19T15:44:30.302Z,91.07
2023-05-19T15:46:58.268Z,91.38
2023-05-19T15:49:26.316Z,91.14
2023-05-19T15:51:54.367Z,91.39
2023-05-19T15:54:22.825Z,91.43
2023-05-19T15:56:50.782Z,91.65
2023-05-19T15:59:18.803Z,91.41
2023-05-19T16:01:46.784Z,91.52
2023-05-19T16:04:14.963Z,91.70
2023-05-19T16:06:43.372Z,91.80
2023-05-19T16:09:11.543Z,91.97
2023-05-19T16:11:39.526Z,91.85
2023-05-19T16:14:07.458Z,92.05
2023-05-19T16:16:35.559Z,91.94
2023-05-19T16:19:03.527Z,91.95
2023-05-19T16:21:32.332Z,92.25
2023-05-19T16:24:00.348Z,92.01
2023-05-19T16:26:29.043Z,92.16
2023-05-19T16:28:57.033Z,92.39
2023-05-19T16:31:24.989Z,92.58
2023-05-19T16:33:53.022Z,92.28
2023-05-19T16:36:22.784Z,92.28
2023-05-19T16:38:50.881Z,92.17
2023-05-19T16:41:18.924Z,92.43
2023-05-19T16:43:49.049Z,92.82
2023-05-19T16:46:22.051Z,92.72
2023-05-19T16:48:51.258Z,92.82
2023-05-19T16:51:19.956Z,92.70
2023-05-19T16:53:49.299Z,92.91
2023-05-19T16:56:17.717Z,93.03
2023-05-19T16:58:45.872Z,93.00
2023-05-19T17:01:13.917Z,93.07
2023-05-19T17:03:41.940Z,92.93
2023-05-19T17:06:09.905Z,93.31
2023-05-19T17:08:44.387Z,93.34
2023-05-19T17:11:15.853Z,93.07
2023-05-19T17:13:46.394Z,93.44
2023-05-19T17:16:18.257Z,93.27
2023-05-19T17:18:47.944Z,93.18
2023-05-19T17:21:16.035Z,93.47
2023-05-19T17:23:44.046Z,93.51
2023-05-19T17:26:12.095Z,93.51
2023-05-19T17:28:40.484Z,93.90
2023-05-19T17:31:15.859Z,93.79
2023-05-19T17:33:43.878Z,93.86
2023-05-19T17:36:11.888Z,94.24
2023-05-19T17:38:40.502Z,94.04
2023-05-19T17:41:13.947Z,94.09
2023-05-19T17:43:42.089Z,94.18
2023-05-19T17:46:10.094Z,94.22
2023-05-19T17:48:38.204Z,94.27
2023-05-19T17:51:09.088Z,94.38
2023-05-19T17:53:37.431Z,94.30
2023-05-19T17:56:16.519Z,94.65
2023-05-19T17:58:46.640Z,94.57
2023-05-19T18:01:15.089Z,94.55
2023-05-19T18:03:49.388Z,94.64
2023-05-19T18:06:19.051Z,94.57
2023-05-19T18:08:50.733Z,94.78
2023-05-19T18:11:21.731Z,94.76
2023-05-19T18:13:49.872Z,94.98
2023-05-19T18:16:17.984Z,94.71
2023-05-19T18:18:50.437Z,94.86
2023-05-19T18:21:18.915Z,94.74
2023-05-19T18:23:46.944Z,95.03
2023-05-19T18:26:15.986Z,95.13
2023-05-19T18:28:44.033Z,95.37
2023-05-19T18:31:17.549Z,95.05
2023-05-19T18:33:47.168Z,94.83
2023-05-19T18:36:16.666Z,95.11
2023-05-19T18:38:44.811Z,95.42
2023-05-19T18:41:12.819Z,95.24
2023-05-19T18:43:40.873Z,95.22
2023-05-19T18:46:09.040Z,95.34
2023-05-19T18:48:37.089Z,95.26
2023-05-19T18:51:05.139Z,95.37
2023-05-19T18:53:34.687Z,95.59
2023-05-19T18:56:06.314Z,95.47
2023-05-19T18:58:36.726Z,95.76
2023-05-19T19:01:05.237Z,95.86
2023-05-19T19:03:33.325Z,95.63
2023-05-19T19:06:01.316Z,96.04
2023-05-19T19:08:29.289Z,96.16
2023-05-19T19:11:00.293Z,96.23
2023-05-19T19:13:28.549Z,96.44
2023-05-19T19:15:58.663Z,96.75
2023-05-19T19:18:26.968Z,96.65
2023-05-19T19:20:57.343Z,96.72
2023-05-19T19:23:25.546Z,96.81
2023-05-19T19:25:53.956Z,96.74
2023-05-19T19:28:22.741Z,96.76
2023-05-19T19:30:51.192Z,96.67
2023-05-19T19:33:19.275Z,96.64
2023-05-19T19:35:52.360Z,96.84
2023-05-19T19:38:20.600Z,96.61
2023-05-19T19:40:51.444Z,96.62
2023-05-19T19:43:19.516Z,96.66
2023-05-19T19:45:47.492Z,96.72
2023-05-19T19:48:15.926Z,96.98
2023-05-19T19:50:44.161Z,96.89
2023-05-19T19:53:12.303Z,96.91
2023-05-19T19:55:43.259Z,97.28
2023-05-19T19:58:11.287Z,97.22
2023-05-19T20:00:39.261Z,97.16
2023-05-19T20:03:07.758Z,97.03
2023-05-19T20:05:38.157Z,97.05
2023-05-19T20:08:08.025Z,97.49
2023-05-19T20:10:39.177Z,97.43
2023-05-19T20:13:07.465Z,97.29
2023-05-19T20:15:35.612Z,97.22
2023-05-19T20:18:03.698Z,97.43
2023-05-19T20:20:33.361Z,97.46
2023-05-19T20:23:01.499Z,97.28
2023-05-19T20:25:33.030Z,97.48
2023-05-19T20:28:02.153Z,97.67
2023-05-19T20:30:30.120Z,97.71
2023-05-19T20:32:58.401Z,97.74
2023-05-19T20:35:26.526Z,97.82
2023-05-19T20:37:56.994Z,97.78
2023-05-19T20:40:25.040Z,97.79
2023-05-19T20:42:53.168Z,97.93
2023-05-19T20:45:21.408Z,98.01
2023-05-19T20:47:49.421Z,98.03
2023-05-19T20:50:17.502Z,98.01
2023-05-19T20:52:45.840Z,97.88
2023-05-19T20:55:13.801Z,97.74
2023-05-19T20:57:43.909Z,98.00
2023-05-19T21:00:12.286Z,98.03
2023-05-19T21:02:40.496Z,97.93
2023-05-19T21:05:08.717Z,98.68
2023-05-19T21:07:36.784Z,98.46
2023-05-19T21:10:05.249Z,98.43
2023-05-19T21:12:34.355Z,98.73
2023-05-19T21:15:03.745Z,98.57
2023-05-19T21:17:32.143Z,99.05
2023-05-19T21:20:00.634Z,99.23
2023-05-19T21:22:28.637Z,99.33
2023-05-19T21:24:57.079Z,99.15
2023-05-19T21:27:25.192Z,99.12
2023-05-19T21:29:56.073Z,99.08
2023-05-19T21:32:23.992Z,99.19
2023-05-19T21:34:51.960Z,99.43
2023-05-19T21:37:21.224Z,99.55
2023-05-19T21:39:49.301Z,99.57
2023-05-19T21:42:17.632Z,99.51
2023-05-19T21:44:45.728Z,99.55
2023-05-19T21:47:13.789Z,99.76
2023-05-19T21:49:41.796Z,99.86
2023-05-19T21:52:10.146Z,99.74
2023-05-19T21:54:40.863Z,99.66
2023-05-19T21:57:11.145Z,99.97
2023-05-19T21:59:39.146Z,99.90
2023-05-19T22:02:07.295Z,99.82
2023-05-19T22:04:36.009Z,99.71
2023-05-19T22:07:06.474Z,99.73
2023-05-19T22:09:34.505Z,99.98
2023-05-19T22:12:02.510Z,100.00
2023-05-19T22:14:30.632Z,100.00
2023-05-19T22:16:58.643Z,100.00
2023-05-19T22:19:26.656Z,99.98
2023-05-19T22:22:01.724Z,99.98
2023-05-19T22:24:30.404Z,99.90
2023-05-19T22:26:58.518Z,100.00
2023-05-19T22:29:26.490Z,100.00
2023-05-19T22:31:54.471Z,100.00
2023-05-19T22:34:22.524Z,100.00
2023-05-19T22:36:50.500Z,100.00
2023-05-19T22:39:18.540Z,100.00
2023-05-19T22:41:46.570Z,100.00
2023-05-19T22:44:16.274Z,100.00
2023-05-19T22:46:44.786Z,100.00
2023-05-19T22:49:12.748Z,100.00
2023-05-19T22:51:40.772Z,100.00
2023-05-19T22:54:09.578Z,100.00
2023-05-19T22:56:37.614Z,100.00
2023-05-19T22:59:05.873Z,100.00
2023-05-19T23:01:34.050Z,100.00
2023-05-19T23:04:02.181Z,100.00
2023-05-19T23:06:31.454Z,100.00
2023-05-19T23:09:02.136Z,100.00
2023-05-19T23:11:30.702Z,100.00
2023-05-19T23:13:58.743Z,100.00
2023-05-19T23:16:26.689Z,100.00
2023-05-19T23:18:54.684Z,100.00
2023-05-19T23:21:22.714Z,100.00
2023-05-19T23:23:50.795Z,100.00
2023-05-19T23:26:18.783Z,100.00
2023-05-19T23:28:47.085Z,100.00
2023-05-19T23:31:15.116Z,100.00
2023-05-19T23:33:43.080Z,100.00
2023-05-19T23:36:11.040Z,100.00
2023-05-19T23:38:41.747Z,100.00
2023-05-19T23:41:09.729Z,100.00
2023-05-19T23:43:37.950Z,100.00
2023-05-19T23:46:06.095Z,100.00
2023-05-19T23:48:34.476Z,100.00
2023-05-19T23:51:02.513Z,100.00
2023-05-19T23:53:30.542Z,100.00
2023-05-19T23:55:58.840Z,100.00
2023-05-19T23:58:26.834Z,100.00
